createdAt,value
2022-08-07T00:02:35.272Z,94807.09
2022-08-07T00:04:09.251Z,94807.81
2022-08-07T00:06:37.009Z,94808.63
2022-08-07T00:09:16.966Z,94814.34
2022-08-07T00:11:55.599Z,94809.59
2022-08-07T00:14:30.200Z,94812.75
2022-08-07T00:17:02.520Z,94810.22
2022-08-07T00:19:59.737Z,94811.13
2022-08-07T00:22:24.558Z,94807.94
2022-08-07T00:25:11.003Z,94805.91
2022-08-07T00:27:53.323Z,94808.31
2022-08-07T00:30:27.187Z,94802.28
2022-08-07T00:32:59.962Z,94815.63
2022-08-07T00:35:29.549Z,94812.97
2022-08-07T00:37:56.722Z,94807.72
2022-08-07T00:40:40.173Z,94813.50
2022-08-07T00:43:59.485Z,94815.06
2022-08-07T00:46:00.466Z,94819.91
2022-08-07T00:48:32.077Z,94812.25
2022-08-07T00:51:00.937Z,94803.78
2022-08-07T00:53:39.036Z,94812.09
2022-08-07T00:56:15.787Z,94812.19
2022-08-07T00:58:47.066Z,94813.81
2022-08-07T01:01:18.345Z,94810.00
2022-08-07T01:03:56.181Z,94819.19
2022-08-07T01:06:30.337Z,94806.81
2022-08-07T01:08:58.532Z,94809.81
2022-08-07T01:12:09.881Z,94819.59
2022-08-07T01:14:16.713Z,94818.63
2022-08-07T01:16:46.996Z,94827.16
2022-08-07T01:19:19.692Z,94832.13
2022-08-07T01:21:52.994Z,94821.41
2022-08-07T01:24:22.997Z,94827.66
2022-08-07T01:26:52.804Z,94835.63
2022-08-07T01:29:27.663Z,94828.75
2022-08-07T01:31:59.407Z,94808.31
2022-08-07T01:34:32.937Z,94826.28
2022-08-07T01:37:09.718Z,94825.72
2022-08-07T01:39:41.477Z,94838.81
2022-08-07T01:42:38.114Z,94827.28
2022-08-07T01:45:18.250Z,94827.25
2022-08-07T01:48:29.296Z,94853.19
2022-08-07T01:50:40.390Z,94857.78
2022-08-07T01:53:21.685Z,94876.31
2022-08-07T01:56:04.044Z,94906.31
2022-08-07T01:58:40.876Z,94913.97
2022-08-07T02:01:25.587Z,94915.38
2022-08-07T02:04:11.704Z,94916.16
2022-08-07T02:06:43.117Z,94919.91
2022-08-07T02:09:51.818Z,94920.78
2022-08-07T02:12:18.059Z,94936.16
2022-08-07T02:14:56.131Z,94926.72
2022-08-07T02:17:37.628Z,94934.50
2022-08-07T02:20:17.573Z,94929.84
2022-08-07T02:22:55.229Z,94932.09
2022-08-07T02:26:10.142Z,94922.19
2022-08-07T02:28:24.453Z,94914.97
2022-08-07T02:30:56.446Z,94900.28
2022-08-07T02:33:41.829Z,94905.63
2022-08-07T02:36:28.519Z,94886.56
2022-08-07T02:38:59.186Z,94890.94
2022-08-07T02:41:33.152Z,94878.19
2022-08-07T02:44:03.290Z,94863.25
2022-08-07T02:46:36.721Z,94865.72
2022-08-07T02:49:05.756Z,94863.56
2022-08-07T02:51:49.917Z,94857.53
2022-08-07T02:54:25.248Z,94853.56
2022-08-07T02:56:55.509Z,94848.75
2022-08-07T02:59:27.550Z,94849.47
2022-08-07T03:02:02.194Z,94858.69
2022-08-07T03:04:30.480Z,94846.06
2022-08-07T03:07:07.161Z,94845.72
2022-08-07T03:09:43.682Z,94846.53
2022-08-07T03:12:22.357Z,94839.16
2022-08-07T03:15:07.689Z,94840.59
2022-08-07T03:17:53.598Z,94840.50
2022-08-07T03:20:24.466Z,94845.88
2022-08-07T03:22:54.980Z,94859.53
2022-08-07T03:25:23.811Z,94858.94
2022-08-07T03:27:59.199Z,94853.81
2022-08-07T03:30:37.539Z,94855.28
2022-08-07T03:33:08.581Z,94854.69
2022-08-07T03:35:44.229Z,94854.31
2022-08-07T03:38:21.377Z,94859.34
2022-08-07T03:41:00.399Z,94858.44
2022-08-07T03:43:32.376Z,94858.31
2022-08-07T03:46:03.887Z,94855.53
2022-08-07T03:49:02.221Z,94860.00
2022-08-07T03:51:30.910Z,94869.41
2022-08-07T03:54:36.042Z,94879.47
2022-08-07T03:57:07.323Z,94869.88
2022-08-07T03:59:36.889Z,94865.81
2022-08-07T04:02:14.673Z,94868.22
2022-08-07T04:04:43.102Z,94874.47
2022-08-07T04:07:16.814Z,94875.28
2022-08-07T04:09:50.222Z,94875.38
2022-08-07T04:12:28.182Z,94873.69
2022-08-07T04:14:58.328Z,94877.78
2022-08-07T04:18:31.950Z,94882.63
2022-08-07T04:20:17.140Z,94888.88
2022-08-07T04:22:53.433Z,94883.06
2022-08-07T04:25:29.307Z,94883.78
2022-08-07T04:28:00.436Z,94885.97
2022-08-07T04:30:39.473Z,94888.50
2022-08-07T04:33:21.282Z,94885.94
2022-08-07T04:35:54.004Z,94886.97
2022-08-07T04:38:26.163Z,94907.44
2022-08-07T04:40:56.733Z,94892.78
2022-08-07T04:44:10.045Z,94908.22
2022-08-07T04:46:53.950Z,94905.72
2022-08-07T04:50:12.333Z,94902.91
2022-08-07T04:53:09.162Z,94905.41
2022-08-07T04:58:15.001Z,94901.84
2022-08-07T04:59:17.806Z,94911.28
2022-08-07T05:01:44.727Z,94921.06
2022-08-07T05:04:22.639Z,94914.41
2022-08-07T05:07:09.557Z,94911.53
2022-08-07T05:10:11.244Z,94920.84
2022-08-07T05:14:44.497Z,94926.50
2022-08-07T05:15:55.086Z,94930.63
2022-08-07T05:18:22.327Z,94926.63
2022-08-07T05:20:53.629Z,94920.19
2022-08-07T05:23:38.533Z,94915.91
2022-08-07T05:26:15.593Z,94927.19
2022-08-07T05:28:55.690Z,94935.84
2022-08-07T05:31:35.151Z,94933.19
2022-08-07T05:34:15.028Z,94928.44
2022-08-07T05:36:52.747Z,94929.31
2022-08-07T05:40:13.675Z,94940.00
2022-08-07T05:42:36.806Z,94935.59
2022-08-07T05:45:26.231Z,94944.88
2022-08-07T05:48:02.612Z,94946.06
2022-08-07T05:50:42.945Z,94955.09
2022-08-07T05:54:09.648Z,94960.97
2022-08-07T05:56:01.881Z,94961.94
2022-08-07T05:58:36.737Z,94957.59
2022-08-07T06:01:10.663Z,94972.19
2022-08-07T06:03:56.674Z,94966.16
2022-08-07T06:06:29.915Z,94964.72
2022-08-07T06:09:04.356Z,94968.00
2022-08-07T06:11:34.959Z,94972.56
2022-08-07T06:14:11.822Z,94964.19
2022-08-07T06:16:56.221Z,94955.28
2022-08-07T06:19:47.904Z,94968.94
2022-08-07T06:22:24.052Z,94962.22
2022-08-07T06:25:10.405Z,94964.31
2022-08-07T06:27:44.181Z,94961.28
2022-08-07T06:30:35.418Z,94966.47
2022-08-07T06:33:09.941Z,94979.25
2022-08-07T06:35:47.770Z,94967.47
2022-08-07T06:38:31.882Z,94972.09
2022-08-07T06:41:01.844Z,94963.72
2022-08-07T06:43:39.472Z,94964.63
2022-08-07T06:46:13.737Z,94962.19
2022-08-07T06:48:44.473Z,94971.72
2022-08-07T06:51:24.619Z,94970.19
2022-08-07T06:55:29.609Z,94976.91
2022-08-07T06:56:51.789Z,94968.34
2022-08-07T07:00:13.310Z,94974.78
2022-08-07T07:02:48.368Z,94971.63
2022-08-07T07:05:06.372Z,94965.69
2022-08-07T07:07:59.002Z,94978.03
2022-08-07T07:10:56.390Z,94975.75
2022-08-07T07:13:43.652Z,94973.25
2022-08-07T07:16:22.087Z,94978.50
2022-08-07T07:18:55.784Z,94967.84
2022-08-07T07:22:05.289Z,94969.91
2022-08-07T07:24:17.397Z,94973.09
2022-08-07T07:26:49.713Z,94963.88
2022-08-07T07:29:39.747Z,94969.69
2022-08-07T07:32:14.329Z,94968.13
2022-08-07T07:34:46.657Z,94964.06
2022-08-07T07:37:43.973Z,94969.91
2022-08-07T07:40:14.884Z,94971.94
2022-08-07T07:42:50.936Z,94978.91
2022-08-07T07:46:40.189Z,94973.47
2022-08-07T07:48:24.086Z,94975.78
2022-08-07T07:51:07.846Z,94989.31
2022-08-07T07:53:48.142Z,94984.53
2022-08-07T07:56:30.323Z,94985.88
2022-08-07T07:59:01.577Z,94989.00
2022-08-07T08:02:01.962Z,94995.13
2022-08-07T08:04:19.782Z,94983.44
2022-08-07T08:06:53.641Z,94990.59
2022-08-07T08:09:29.143Z,94992.56
2022-08-07T08:12:02.558Z,94999.47
2022-08-07T08:14:36.492Z,94998.22
2022-08-07T08:17:55.599Z,95001.47
2022-08-07T08:20:22.880Z,94992.22
2022-08-07T08:23:09.967Z,94986.81
2022-08-07T08:25:58.120Z,94984.44
2022-08-07T08:28:37.933Z,94982.13
2022-08-07T08:31:14.810Z,94990.63
2022-08-07T08:33:49.422Z,94980.63
2022-08-07T08:36:25.738Z,94985.22
2022-08-07T08:38:57.646Z,94989.50
2022-08-07T08:41:57.733Z,94988.31
2022-08-07T08:44:53.431Z,95000.72
2022-08-07T08:47:55.083Z,95000.72
2022-08-07T08:50:38.819Z,95000.72
2022-08-07T08:53:33.574Z,95004.22
2022-08-07T08:56:16.995Z,95001.50
2022-08-07T08:59:08.656Z,94984.44
2022-08-07T09:02:13.303Z,94984.47
2022-08-07T09:05:06.107Z,94985.22
2022-08-07T09:07:46.608Z,94998.34
2022-08-07T09:10:35.019Z,94985.13
2022-08-07T09:13:14.713Z,94973.72
2022-08-07T09:16:22.942Z,94983.09
2022-08-07T09:19:44.837Z,94981.19
2022-08-07T09:24:27.502Z,94970.75
2022-08-07T09:25:20.343Z,94972.31
2022-08-07T09:28:04.086Z,94967.75
2022-08-07T09:30:52.908Z,94950.88
2022-08-07T09:33:56.853Z,94955.63
2022-08-07T09:36:53.217Z,94948.75
2022-08-07T09:39:54.220Z,94945.34
2022-08-07T09:42:33.692Z,94950.88
2022-08-07T09:47:20.399Z,94945.78
2022-08-07T09:48:11.668Z,94946.00
2022-08-07T09:50:56.161Z,94941.09
2022-08-07T09:53:41.215Z,94940.09
2022-08-07T09:56:37.634Z,94949.78
2022-08-07T10:00:00.718Z,94944.50
2022-08-07T10:04:06.535Z,94923.25
2022-08-07T10:06:17.257Z,94925.81
2022-08-07T10:09:10.897Z,94933.09
2022-08-07T10:12:11.832Z,94920.16
2022-08-07T10:15:44.565Z,94926.44
2022-08-07T10:18:37.636Z,94915.59
2022-08-07T10:21:19.803Z,94907.56
2022-08-07T10:24:21.591Z,94907.34
2022-08-07T10:27:06.731Z,94905.56
2022-08-07T10:30:07.001Z,94905.06
2022-08-07T10:32:52.849Z,94913.16
2022-08-07T10:35:56.533Z,94915.34
2022-08-07T10:38:51.196Z,94925.31
2022-08-07T10:41:51.944Z,94923.06
2022-08-07T10:47:01.076Z,94927.63
2022-08-07T10:49:54.690Z,94935.44
2022-08-07T10:52:33.758Z,94921.00
2022-08-07T10:55:37.844Z,94921.69
2022-08-07T10:58:17.891Z,94922.44
2022-08-07T11:01:17.183Z,94921.97
2022-08-07T11:04:23.175Z,94913.47
2022-08-07T11:06:58.196Z,94916.72
2022-08-07T11:10:07.058Z,94921.50
2022-08-07T11:12:32.246Z,94933.53
2022-08-07T11:15:17.232Z,94917.66
2022-08-07T11:18:03.605Z,94913.72
2022-08-07T11:20:46.076Z,94917.00
2022-08-07T11:23:38.399Z,94917.41
2022-08-07T11:26:26.469Z,94917.75
2022-08-07T11:29:13.272Z,94910.00
2022-08-07T11:32:25.223Z,94925.59
2022-08-07T11:35:03.836Z,94927.81
2022-08-07T11:38:10.429Z,94924.38
2022-08-07T11:40:49.532Z,94928.69
2022-08-07T11:43:29.438Z,94930.88
2022-08-07T11:46:29.577Z,94941.25
2022-08-07T11:49:51.626Z,94940.81
2022-08-07T11:52:29.009Z,94934.59
2022-08-07T11:56:11.958Z,94935.03
2022-08-07T11:58:21.463Z,94935.66
2022-08-07T12:01:20.244Z,94934.28
2022-08-07T12:04:06.348Z,94933.09
2022-08-07T12:06:51.560Z,94937.09
2022-08-07T12:09:32.836Z,94926.56
2022-08-07T12:12:09.611Z,94945.44
2022-08-07T12:14:44.830Z,94942.09
2022-08-07T12:17:29.057Z,94937.94
2022-08-07T12:20:29.922Z,94938.66
2022-08-07T12:24:04.995Z,94928.63
2022-08-07T12:26:34.505Z,94925.97
2022-08-07T12:29:37.604Z,94923.19
2022-08-07T12:32:20.848Z,94913.72
2022-08-07T12:34:55.633Z,94905.84
2022-08-07T12:37:28.503Z,94910.47
2022-08-07T12:40:44.933Z,94903.28
2022-08-07T12:43:09.388Z,94896.63
2022-08-07T12:45:52.775Z,94906.13
2022-08-07T12:48:55.076Z,94897.75
2022-08-07T12:51:33.450Z,94909.16
2022-08-07T12:54:54.583Z,94908.94
2022-08-07T12:57:29.987Z,94902.91
2022-08-07T13:00:20.704Z,94894.72
2022-08-07T13:03:54.735Z,94895.84
2022-08-07T13:06:33.989Z,94887.38
2022-08-07T13:10:21.891Z,94891.78
2022-08-07T13:12:40.427Z,94891.91
2022-08-07T13:15:23.803Z,94884.06
2022-08-07T13:18:26.369Z,94883.38
2022-08-07T13:21:09.499Z,94883.97
2022-08-07T13:24:04.984Z,94875.44
2022-08-07T13:26:35.463Z,94865.94
2022-08-07T13:29:26.774Z,94870.59
2022-08-07T13:32:31.833Z,94870.09
2022-08-07T13:36:00.528Z,94859.66
2022-08-07T13:38:30.499Z,94862.44
2022-08-07T13:41:15.572Z,94868.19
2022-08-07T13:43:52.756Z,94872.84
2022-08-07T13:46:32.800Z,94874.66
2022-08-07T13:49:04.123Z,94868.34
2022-08-07T13:52:22.986Z,94866.81
2022-08-07T13:54:30.470Z,94876.53
2022-08-07T13:57:03.858Z,94868.47
2022-08-07T13:59:33.504Z,94866.00
2022-08-07T14:02:12.999Z,94870.50
2022-08-07T14:04:54.568Z,94863.75
2022-08-07T14:07:27.592Z,94876.94
2022-08-07T14:10:01.973Z,94877.91
2022-08-07T14:12:36.253Z,94886.03
2022-08-07T14:15:18.547Z,94890.41
2022-08-07T14:18:27.488Z,94892.81
2022-08-07T14:20:43.567Z,94893.00
2022-08-07T14:23:31.456Z,94898.19
2022-08-07T14:26:29.823Z,94896.44
2022-08-07T14:29:08.566Z,94890.75
2022-08-07T14:31:56.130Z,94898.56
2022-08-07T14:34:30.115Z,94887.88
2022-08-07T14:37:03.281Z,94894.25
2022-08-07T14:40:16.042Z,94885.47
2022-08-07T14:42:31.459Z,94883.06
2022-08-07T14:50:48.883Z,94886.88
2022-08-07T14:54:05.781Z,94880.03
2022-08-07T14:56:13.885Z,94879.84
2022-08-07T14:58:45.313Z,94877.69
2022-08-07T15:01:21.654Z,94884.94
2022-08-07T15:03:52.368Z,94875.34
2022-08-07T15:06:29.780Z,94876.31
2022-08-07T15:12:07.942Z,94877.72
2022-08-07T15:14:55.979Z,94874.53
2022-08-07T15:20:33.627Z,94866.69
2022-08-07T15:25:14.054Z,94876.84
2022-08-07T15:26:20.821Z,94864.88
2022-08-07T15:28:58.424Z,94865.25
2022-08-07T15:32:02.104Z,94861.34
2022-08-07T15:34:17.186Z,94859.28
2022-08-07T15:39:56.879Z,94875.09
2022-08-07T15:42:47.627Z,94873.53
2022-08-07T15:45:23.971Z,94877.59
2022-08-07T15:48:00.862Z,94876.63
2022-08-07T15:50:37.986Z,94874.69
2022-08-07T15:53:52.079Z,94884.88
2022-08-07T15:56:14.841Z,94891.47
2022-08-07T15:58:52.332Z,94889.41
2022-08-07T16:01:39.769Z,94889.31
2022-08-07T16:04:15.123Z,94886.41
2022-08-07T16:06:54.447Z,94881.41
2022-08-07T16:09:49.150Z,94886.31
2022-08-07T16:12:37.836Z,94885.88
2022-08-07T16:15:55.090Z,94887.66
2022-08-07T16:18:49.809Z,94888.66
2022-08-07T16:22:01.498Z,94889.06
2022-08-07T16:24:34.755Z,94891.38
2022-08-07T16:27:19.101Z,94897.41
2022-08-07T16:30:30.081Z,94888.97
2022-08-07T16:34:01.805Z,94887.81
2022-08-07T16:36:31.373Z,94896.03
2022-08-07T16:39:33.532Z,94898.28
2022-08-07T16:42:44.885Z,94902.31
2022-08-07T16:46:21.323Z,94900.41
2022-08-07T16:48:37.642Z,94897.22
2022-08-07T16:51:52.089Z,94905.09
2022-08-07T16:54:33.186Z,94902.84
2022-08-07T16:57:15.417Z,94898.72
2022-08-07T17:00:15.212Z,94917.41
2022-08-07T17:03:10.000Z,94922.97
2022-08-07T17:06:29.404Z,94931.91
2022-08-07T17:09:13.837Z,94931.19
2022-08-07T17:12:05.360Z,94940.25
2022-08-07T17:14:55.772Z,94956.47
2022-08-07T17:17:58.616Z,94948.75
2022-08-07T17:20:31.081Z,94965.06
2022-08-07T17:23:11.696Z,94965.47
2022-08-07T17:26:02.206Z,94971.66
2022-08-07T17:28:50.004Z,94976.28
2022-08-07T17:32:02.698Z,94971.16
2022-08-07T17:35:32.900Z,94975.03
2022-08-07T17:38:05.118Z,94969.69
2022-08-07T17:42:02.374Z,94973.13
2022-08-07T17:44:03.194Z,94972.31
2022-08-07T17:46:52.274Z,94979.75
2022-08-07T17:49:24.858Z,94992.50
2022-08-07T17:52:00.417Z,94982.13
2022-08-07T17:54:39.938Z,94981.38
2022-08-07T17:57:32.055Z,94982.13
2022-08-07T18:00:34.233Z,94988.69
2022-08-07T18:03:18.721Z,94992.97
2022-08-07T18:06:03.341Z,94999.53
2022-08-07T18:08:33.449Z,95004.19
2022-08-07T18:11:53.648Z,95013.47
2022-08-07T18:13:59.564Z,95012.34
2022-08-07T18:16:57.418Z,95018.50
2022-08-07T18:21:08.366Z,95027.03
2022-08-07T18:22:26.356Z,95032.44
2022-08-07T18:25:01.759Z,95045.59
2022-08-07T18:28:33.932Z,95036.34
2022-08-07T18:31:40.560Z,95049.88
2022-08-07T18:34:37.789Z,95044.47
2022-08-07T18:38:55.561Z,95038.25
2022-08-07T18:40:59.819Z,95037.47
2022-08-07T18:43:57.872Z,95047.94
2022-08-07T18:46:31.501Z,95052.56
2022-08-07T18:50:31.520Z,95064.16
2022-08-07T18:52:52.754Z,95052.59
2022-08-07T18:55:40.699Z,95069.59
2022-08-07T18:58:34.628Z,95068.06
2022-08-07T19:02:18.670Z,95082.34
2022-08-07T19:04:56.256Z,95081.16
2022-08-07T19:07:52.899Z,95098.16
2022-08-07T19:10:51.633Z,95098.97
2022-08-07T19:13:44.009Z,95095.09
2022-08-07T19:17:08.114Z,95087.75
2022-08-07T19:19:46.143Z,95093.69
2022-08-07T19:22:31.066Z,95108.81
2022-08-07T19:25:06.525Z,95101.03
2022-08-07T19:28:57.600Z,95094.97
2022-08-07T19:31:03.751Z,95102.22
2022-08-07T19:33:34.684Z,95093.00
2022-08-07T19:36:03.673Z,95097.66
2022-08-07T19:38:34.097Z,95107.25
2022-08-07T19:41:02.556Z,95101.06
2022-08-07T19:43:43.499Z,95100.94
2022-08-07T19:46:26.585Z,95082.34
2022-08-07T19:49:58.192Z,95102.50
2022-08-07T19:52:27.482Z,95087.00
2022-08-07T19:54:58.645Z,95090.91
2022-08-07T19:58:01.099Z,95091.63
2022-08-07T20:00:29.106Z,95072.38
2022-08-07T20:03:03.517Z,95090.91
2022-08-07T20:06:00.071Z,95087.03
2022-08-07T20:08:24.071Z,95091.78
2022-08-07T20:11:01.928Z,95089.88
2022-08-07T20:13:55.134Z,95090.00
2022-08-07T20:16:34.697Z,95090.75
2022-08-07T20:19:05.908Z,95086.09
2022-08-07T20:21:41.783Z,95076.03
2022-08-07T20:24:24.093Z,95074.50
2022-08-07T20:26:58.950Z,95079.91
2022-08-07T20:29:48.210Z,95078.31
2022-08-07T20:32:25.444Z,95085.69
2022-08-07T20:34:56.378Z,95083.00
2022-08-07T20:37:33.891Z,95082.25
2022-08-07T20:40:32.951Z,95089.16
2022-08-07T20:42:59.037Z,95072.13
2022-08-07T20:45:32.651Z,95084.19
2022-08-07T20:48:29.583Z,95089.06
2022-08-07T20:51:02.762Z,95088.75
2022-08-07T20:54:02.125Z,95087.88
2022-08-07T20:56:26.514Z,95094.97
2022-08-07T20:58:58.844Z,95094.28
2022-08-07T21:01:29.791Z,95079.47
2022-08-07T21:04:23.440Z,95095.03
2022-08-07T21:06:55.111Z,95092.03
2022-08-07T21:09:51.685Z,95093.47
2022-08-07T21:12:28.731Z,95087.22
2022-08-07T21:14:58.632Z,95094.84
2022-08-07T21:18:03.549Z,95089.13
2022-08-07T21:20:26.870Z,95089.59
2022-08-07T21:23:08.340Z,95091.91
2022-08-07T21:25:56.391Z,95094.28
2022-08-07T21:29:02.631Z,95094.75
2022-08-07T21:32:10.840Z,95101.59
2022-08-07T21:34:48.592Z,95107.88
2022-08-07T21:37:57.173Z,95103.84
2022-08-07T21:40:38.221Z,95101.72
2022-08-07T21:43:11.046Z,95096.72
2022-08-07T21:46:07.806Z,95100.59
2022-08-07T21:49:16.782Z,95103.34
2022-08-07T21:52:01.931Z,95101.75
2022-08-07T21:54:34.453Z,95109.97
2022-08-07T21:57:39.913Z,95110.44
2022-08-07T22:00:23.187Z,95108.41
2022-08-07T22:03:30.704Z,95114.66
2022-08-07T22:06:06.548Z,95104.03
2022-08-07T22:08:46.096Z,95099.53
2022-08-07T22:11:18.135Z,95098.31
2022-08-07T22:13:52.190Z,95102.97
2022-08-07T22:16:46.870Z,95098.09
2022-08-07T22:19:31.045Z,95103.06
2022-08-07T22:22:27.422Z,95100.75
2022-08-07T22:25:02.858Z,95111.34
2022-08-07T22:28:29.297Z,95105.03
2022-08-07T22:30:39.619Z,95098.09
2022-08-07T22:33:12.506Z,95108.59
2022-08-07T22:36:04.536Z,95115.66
2022-08-07T22:38:51.899Z,95100.59
2022-08-07T22:42:03.598Z,95114.00
2022-08-07T22:44:25.370Z,95117.56
2022-08-07T22:47:29.467Z,95116.72
2022-08-07T22:50:21.221Z,95126.44
2022-08-07T22:54:06.338Z,95119.94
2022-08-07T22:56:32.585Z,95118.16
2022-08-07T22:59:37.152Z,95123.09
2022-08-07T23:02:20.893Z,95126.91
2022-08-07T23:06:10.027Z,95133.84
2022-08-07T23:08:49.745Z,95123.69
2022-08-07T23:11:22.761Z,95124.22
2022-08-07T23:14:15.134Z,95119.00
2022-08-07T23:17:20.015Z,95128.44
2022-08-07T23:20:51.091Z,95135.66
2022-08-07T23:23:15.513Z,95127.09
2022-08-07T23:26:25.025Z,95129.09
2022-08-07T23:29:43.329Z,95126.91
2022-08-07T23:34:20.070Z,95125.81
2022-08-07T23:35:24.335Z,95124.81
2022-08-07T23:38:03.977Z,95124.22
2022-08-07T23:40:33.564Z,95120.22
2022-08-07T23:43:16.894Z,95123.75
2022-08-07T23:46:02.872Z,95129.09
2022-08-07T23:48:58.977Z,95136.44
2022-08-07T23:53:08.781Z,95128.59
2022-08-07T23:54:52.201Z,95135.59
2022-08-07T23:57:30.533Z,95121.00
